Etusivu
METAR-TAF:

METAR-TAF

Lentoasemat :

Guaymas, Meksiko

Leveyspiiri: 27-58N, Pituuspiiri: 110-56W, korkeus merenpinnasta: 27 m

Tämänhetkinen sää

Tämä raportti tehtiin 59 minuuttia sitten, kello 14.40 UTC
tyyntä
Lämpötila 14°C
Kosteus 51%
Ilmanpaine 1017 hPa
Näkyvyys: 16.1 km
selkeää

METAR: MMGM 281440Z 00000KT 10SM SKC 14/04 A3002

Aika: 08:39 (15:39 UTC)

Sääennuste

Tämä raportti tehtiin 10 tuntia ja 34 minuuttia sitten, kello 05.05 UTC
Ennuste voimassa 28. päivästä klo 06 UTC - 29. päivään klo 06 UTC
Tuuli 5 kn pohjoisesta
Näkyvyys: 10 km
selkeää
From 28. päivästä klo 1900 UTC
Tuuli 12 kn pohjoisesta
Näkyvyys: 10 km
selkeää
From 29. päivästä klo 0200 UTC
Tuuli 8 kn pohjoisesta
Näkyvyys: 10 km
Hajanaisia pilviä 25000 ft:n korkeudessa

TAF: MMGM 280505Z 2806/2906 36005KT P6SM SKC FM281900 36012KT P6SM SKC FM290200 36008KT P6SM SCT250

Säähavainnot ja -ennusteet yli 4000 lentoasemalta (METAR- ja TAF-raportit).

Käytössä olevat sääasemat on merkitty karttaan keltaisilla ja punaisilla pisteillä.

Aseta hiiri pisteen päälle nähdäksesi sääaseman nimen.

Klikkaa sitten nähdäksesi säähavainnot ja -ennusteet.

Kartan vaihtaminen: klikkaa mustalla rastilla varustettuja vihreitä pisteitä, niin voit zoomata sisään; viivalla varustettua vihreää pistettä, niin voit zoomata ulos tai vihreitä nuolia, niin pääset viereisille kartoille.


METAR-TAF: